Time;durP1;ratioP1;P1;durP2;ratioP2;P2;SDS_P1;SDS_P2;PMS_P1;PMS_P2;Temp;Humidity;BMP_temperature;BMP_pressure;BME280_temperature;BME280_humidity;BME280_pressure;Samples;Min_cycle;Max_cycle;Signal;HPM_P1;HPM_P2
2023/07/06 00:02:08;;;;;;;;;7.00;7.00;;;;;18.31;57.30;101480.34;5015940;28;67314;-37
2023/07/06 00:04:35;;;;;;;;;5.00;5.00;;;;;18.29;57.29;101476.91;5017323;28;45672;-37
2023/07/06 00:07:00;;;;;;;;;6.00;6.00;;;;;18.27;57.62;101473.47;5017529;28;45397;-39
2023/07/06 00:09:25;;;;;;;;;8.33;6.33;;;;;18.26;57.72;101480.66;5013257;28;58217;-40
2023/07/06 00:11:51;;;;;;;;;5.67;4.67;;;;;18.23;57.68;101483.59;5015464;28;64312;-40
2023/07/06 00:14:16;;;;;;;;;5.00;4.00;;;;;18.22;58.13;101487.25;5008657;28;45597;-40
2023/07/06 00:16:45;;;;;;;;;5.33;5.33;;;;;18.20;58.12;101483.81;5015635;28;63441;-40
2023/07/06 00:19:10;;;;;;;;;8.67;6.00;;;;;18.17;58.33;101482.22;5016644;28;45828;-40
2023/07/06 00:21:36;;;;;;;;;7.00;6.00;;;;;18.16;58.42;101488.56;5017265;28;61219;-40
2023/07/06 00:24:02;;;;;;;;;5.67;5.00;;;;;18.14;58.24;101484.25;5020593;28;46166;-40
2023/07/06 00:26:27;;;;;;;;;5.33;4.00;;;;;18.13;58.24;101486.09;5016719;28;45486;-40
2023/07/06 00:28:53;;;;;;;;;9.67;9.00;;;;;18.12;58.43;101494.25;5019688;28;68122;-40
2023/07/06 00:31:51;;;;;;;;;3.00;3.00;;;;;18.10;58.51;101496.22;5020033;28;46590;-40
2023/07/06 00:34:07;;;;;;;;;9.67;7.33;;;;;18.08;58.89;101490.94;5016998;28;46101;-40
2023/07/06 00:36:37;;;;;;;;;5.00;5.00;;;;;18.06;59.07;101489.34;5018401;28;45543;-39
2023/07/06 00:39:03;;;;;;;;;6.00;6.00;;;;;18.03;59.04;101490.41;5015264;28;45411;-40
2023/07/06 00:41:29;;;;;;;;;6.67;6.00;;;;;17.99;58.92;101497.84;5014260;28;45466;-40
2023/07/06 00:43:55;;;;;;;;;5.33;5.33;;;;;17.97;59.36;101489.00;5020746;28;45931;-39
2023/07/06 00:46:22;;;;;;;;;5.00;5.00;;;;;17.93;59.42;101497.41;5019676;28;54762;-37
2023/07/06 00:48:50;;;;;;;;;7.67;7.33;;;;;17.89;59.80;101496.72;5011098;28;45379;-37
2023/07/06 00:51:28;;;;;;;;;6.00;5.33;;;;;17.85;59.59;101495.22;5006684;28;45516;-39
2023/07/06 00:54:03;;;;;;;;;13.33;7.00;;;;;17.82;59.55;101495.41;5005338;28;46379;-40
2023/07/06 00:56:34;;;;;;;;;8.00;6.33;;;;;17.79;59.90;101492.94;5017543;28;45676;-40
2023/07/06 00:59:02;;;;;;;;;5.33;5.33;;;;;17.76;59.98;101495.88;5012465;28;45519;-40
2023/07/06 01:01:29;;;;;;;;;5.33;5.00;;;;;17.73;59.77;101493.38;4999037;28;45333;-37
2023/07/06 01:03:56;;;;;;;;;9.67;8.00;;;;;17.68;59.49;101499.94;5015002;28;45317;-37
2023/07/06 01:06:28;;;;;;;;;8.00;7.00;;;;;17.64;59.69;101501.13;5006305;28;45435;-38
2023/07/06 01:08:54;;;;;;;;;6.00;6.00;;;;;17.63;59.55;101501.22;5030606;28;45607;-37
2023/07/06 01:11:20;;;;;;;;;7.33;6.00;;;;;17.62;59.69;101504.88;4999365;28;45409;-37
2023/07/06 01:13:50;;;;;;;;;5.00;5.00;;;;;17.60;59.59;101502.31;5018152;28;47065;-37
2023/07/06 01:16:15;;;;;;;;;6.67;5.67;;;;;17.58;59.44;101498.00;5007569;28;46169;-37
2023/07/06 01:18:52;;;;;;;;;6.33;6.33;;;;;17.57;59.72;101498.94;5015917;28;45613;-37
2023/07/06 01:21:28;;;;;;;;;5.67;5.00;;;;;17.56;59.87;101503.47;5011085;28;45444;-37
2023/07/06 01:24:02;;;;;;;;;6.00;5.00;;;;;17.53;59.90;101496.50;5020143;28;45319;-37
2023/07/06 01:26:55;;;;;;;;;7.67;6.00;;;;;17.51;60.29;101493.03;5012041;28;45443;-37
2023/07/06 01:29:31;;;;;;;;;7.00;7.00;;;;;17.49;60.25;101496.78;5013909;28;45775;-40
2023/07/06 01:32:02;;;;;;;;;5.00;5.00;;;;;17.45;59.88;101501.50;5008687;28;45368;-40
2023/07/06 01:34:46;;;;;;;;;6.67;6.33;;;;;17.43;60.18;101499.88;5010230;28;47065;-40
2023/07/06 01:37:36;;;;;;;;;11.67;7.00;;;;;17.41;60.44;101500.00;5013910;28;45377;-40
2023/07/06 01:40:05;;;;;;;;;7.00;5.67;;;;;17.38;60.72;101499.34;5017357;28;45416;-40
2023/07/06 01:42:34;;;;;;;;;6.00;6.00;;;;;17.37;60.43;101495.78;5015730;28;45329;-40
2023/07/06 01:45:07;;;;;;;;;8.00;6.00;;;;;17.36;60.55;101500.31;5008202;28;45470;-40
2023/07/06 01:47:35;;;;;;;;;9.33;6.33;;;;;17.33;60.95;101489.75;5009825;28;45244;-40
2023/07/06 01:50:02;;;;;;;;;5.00;5.00;;;;;17.31;60.79;101486.34;5000523;28;45419;-40
2023/07/06 01:52:35;;;;;;;;;6.33;6.33;;;;;17.29;61.35;101490.09;5014282;28;45554;-40
2023/07/06 01:55:26;;;;;;;;;8.67;7.00;;;;;17.25;61.07;101486.75;5018775;28;48257;-37
2023/07/06 01:58:25;;;;;;;;;7.33;7.33;;;;;17.20;61.51;101478.13;5009695;28;45657;-37
2023/07/06 02:01:12;;;;;;;;;3.33;3.33;;;;;17.16;61.80;101482.84;5017199;28;45262;-37
2023/07/06 02:03:39;;;;;;;;;4.00;4.00;;;;;17.12;61.71;101488.53;5017866;28;45578;-37
2023/07/06 02:06:06;;;;;;;;;6.33;4.00;;;;;17.10;61.98;101487.75;5012750;28;46200;-37
2023/07/06 02:08:32;;;;;;;;;7.33;6.00;;;;;17.08;61.81;101476.25;5004853;28;45460;-40
2023/07/06 02:10:57;;;;;;;;;5.33;5.33;;;;;17.06;62.11;101489.78;5016378;28;67021;-40
2023/07/06 02:13:23;;;;;;;;;10.33;5.33;;;;;17.03;62.38;101479.25;5007025;28;64987;-40
2023/07/06 02:15:48;;;;;;;;;5.33;5.00;;;;;16.99;62.59;101475.91;5017119;28;46997;-40
2023/07/06 02:18:14;;;;;;;;;6.00;6.00;;;;;16.98;62.87;101478.69;5009358;28;49128;-40
2023/07/06 02:20:39;;;;;;;;;7.33;5.67;;;;;16.95;62.71;101479.75;5015744;28;45472;-40
2023/07/06 02:23:07;;;;;;;;;7.33;6.33;;;;;16.93;62.61;101476.31;5013057;28;71382;-40
2023/07/06 02:25:33;;;;;;;;;7.33;7.00;;;;;16.92;62.54;101476.41;5015742;28;46563;-37
2023/07/06 02:27:58;;;;;;;;;6.33;6.33;;;;;16.89;62.77;101476.59;5010203;28;45497;-37
2023/07/06 02:30:23;;;;;;;;;8.67;8.33;;;;;16.87;62.88;101477.53;5017243;28;70066;-37
2023/07/06 02:32:49;;;;;;;;;7.33;6.33;;;;;16.85;62.97;101479.47;5011183;28;45457;-37
2023/07/06 02:35:15;;;;;;;;;11.00;8.00;;;;;16.83;63.33;101481.41;5008305;28;45423;-39
2023/07/06 02:37:41;;;;;;;;;7.00;7.00;;;;;16.80;63.75;101486.09;5019377;28;45565;-40
2023/07/06 02:40:11;;;;;;;;;9.00;7.33;;;;;16.77;63.53;101489.84;5017677;28;45372;-40
2023/07/06 02:42:40;;;;;;;;;9.67;7.00;;;;;16.75;63.57;101481.06;5011302;28;45414;-37
2023/07/06 02:45:06;;;;;;;;;11.33;7.00;;;;;16.74;63.85;101484.69;5008309;28;45432;-37
2023/07/06 02:47:31;;;;;;;;;9.67;8.00;;;;;16.70;63.92;101486.72;5011528;28;45474;-37
2023/07/06 02:49:57;;;;;;;;;9.33;7.00;;;;;16.69;63.98;101484.97;5015910;28;69290;-37
2023/07/06 02:52:23;;;;;;;;;9.00;7.00;;;;;16.69;63.93;101484.97;5012432;28;45507;-38
2023/07/06 02:54:48;;;;;;;;;6.67;6.00;;;;;16.70;63.98;101491.22;5018116;28;73483;-37
2023/07/06 02:57:13;;;;;;;;;9.67;7.33;;;;;16.68;64.03;101485.94;5009869;28;65462;-40
2023/07/06 02:59:39;;;;;;;;;7.00;7.00;;;;;16.66;64.32;101490.56;5015159;28;45303;-38
2023/07/06 03:02:04;;;;;;;;;5.00;5.00;;;;;16.64;64.33;101491.63;5014525;28;62832;-38
2023/07/06 03:04:30;;;;;;;;;6.00;6.00;;;;;16.60;64.85;101496.31;5015466;28;46001;-38
2023/07/06 03:06:57;;;;;;;;;7.00;6.00;;;;;16.58;64.42;101503.59;5012268;28;45702;-38
2023/07/06 03:09:26;;;;;;;;;8.00;6.67;;;;;16.57;64.84;101495.66;5005418;28;45431;-38
2023/07/06 03:11:52;;;;;;;;;8.33;8.00;;;;;16.53;64.93;101479.75;5008826;28;45465;-38
2023/07/06 03:14:21;;;;;;;;;10.67;7.00;;;;;16.52;64.88;101494.13;5016545;28;46619;-38
2023/07/06 03:16:47;;;;;;;;;8.00;8.00;;;;;16.50;65.35;101496.06;5016779;28;45945;-38
2023/07/06 03:19:15;;;;;;;;;8.33;6.33;;;;;16.49;65.11;101499.72;5017197;28;45462;-38
2023/07/06 03:21:40;;;;;;;;;5.33;5.00;;;;;16.46;65.37;101502.56;5017570;28;45449;-37
2023/07/06 03:24:07;;;;;;;;;8.33;7.00;;;;;16.45;65.67;101500.88;5013326;28;45572;-38
2023/07/06 03:26:34;;;;;;;;;9.33;6.33;;;;;16.44;65.55;101495.56;5003503;28;45635;-38
2023/07/06 03:29:03;;;;;;;;;11.33;8.33;;;;;16.42;65.78;101497.50;5017016;28;45407;-38
2023/07/06 03:31:32;;;;;;;;;9.67;8.00;;;;;16.41;65.49;101495.78;5011740;28;45363;-38
2023/07/06 03:33:57;;;;;;;;;10.00;10.00;;;;;16.38;65.96;101497.69;5009840;28;45493;-38
2023/07/06 03:36:22;;;;;;;;;8.00;7.00;;;;;16.36;65.82;101501.44;5015232;28;72728;-40
2023/07/06 03:38:50;;;;;;;;;14.67;8.67;;;;;16.33;66.09;101502.47;5006188;28;63234;-38
2023/07/06 03:41:17;;;;;;;;;9.00;8.00;;;;;16.32;66.00;101503.47;5005664;28;45352;-38
2023/07/06 03:43:43;;;;;;;;;9.67;7.67;;;;;16.32;65.90;101498.09;5012991;28;46075;-38
2023/07/06 03:46:09;;;;;;;;;6.67;6.67;;;;;16.30;66.15;101500.00;5002074;28;45713;-38
2023/07/06 03:48:35;;;;;;;;;6.33;6.33;;;;;16.29;65.70;101498.28;5012380;28;45586;-38
2023/07/06 03:51:04;;;;;;;;;8.00;8.00;;;;;16.28;66.29;101496.56;5016963;28;45317;-38
2023/07/06 03:53:35;;;;;;;;;8.33;8.33;;;;;16.27;66.13;101502.00;5003676;28;47149;-38
2023/07/06 03:56:01;;;;;;;;;8.00;8.00;;;;;16.28;66.56;101503.75;5007306;28;45474;-38
2023/07/06 03:58:26;;;;;;;;;8.67;8.67;;;;;16.25;65.99;101502.13;5013322;28;45886;-38
2023/07/06 04:00:51;;;;;;;;;6.67;6.33;;;;;16.25;66.67;101494.06;5013768;28;56471;-39
2023/07/06 04:03:17;;;;;;;;;11.67;8.00;;;;;16.26;66.17;101497.63;5015922;28;46162;-39
2023/07/06 04:05:47;;;;;;;;;9.33;9.00;;;;;16.26;66.58;101500.31;5008727;28;69147;-39
2023/07/06 04:08:16;;;;;;;;;7.00;7.00;;;;;16.24;66.97;101502.22;5016345;28;45347;-39
2023/07/06 04:10:42;;;;;;;;;10.00;8.67;;;;;16.23;66.83;101508.53;5017943;28;45649;-39
2023/07/06 04:13:09;;;;;;;;;10.00;9.00;;;;;16.23;66.75;101513.91;5014318;28;46969;-39
2023/07/06 04:15:36;;;;;;;;;9.67;9.67;;;;;16.24;66.55;101511.13;5017769;28;45396;-39
2023/07/06 04:18:03;;;;;;;;;10.00;8.00;;;;;16.25;67.18;101510.16;5015647;28;45369;-39
2023/07/06 04:20:30;;;;;;;;;11.00;11.00;;;;;16.27;66.49;101508.25;5013496;28;46031;-39
2023/07/06 04:22:57;;;;;;;;;10.33;10.33;;;;;16.28;67.42;101510.00;5017329;28;45428;-39
2023/07/06 04:25:26;;;;;;;;;10.00;9.33;;;;;16.33;67.25;101507.00;5009715;28;45418;-39
2023/07/06 04:27:52;;;;;;;;;11.33;10.00;;;;;16.34;66.87;101500.69;5017746;28;45170;-39
2023/07/06 04:30:18;;;;;;;;;12.33;11.00;;;;;16.37;67.03;101508.53;5016228;28;45359;-39
2023/07/06 04:32:50;;;;;;;;;11.00;11.00;;;;;16.40;66.87;101507.47;5015284;28;46088;-39
2023/07/06 04:35:18;;;;;;;;;14.00;10.00;;;;;16.43;67.13;101501.94;4998947;28;45468;-39
2023/07/06 04:37:45;;;;;;;;;12.00;11.00;;;;;16.45;67.25;101503.56;5016387;28;45344;-39
2023/07/06 04:40:13;;;;;;;;;10.33;6.67;;;;;16.49;66.70;101502.41;5014976;28;45388;-38
2023/07/06 04:42:40;;;;;;;;;14.00;6.00;;;;;16.52;67.10;101507.56;5014761;28;46264;-39
2023/07/06 04:45:09;;;;;;;;;8.33;8.33;;;;;16.56;67.05;101505.53;5013670;28;45420;-39
2023/07/06 04:47:35;;;;;;;;;8.00;8.00;;;;;16.59;66.64;101508.03;5017223;28;45442;-39
2023/07/06 04:50:01;;;;;;;;;13.00;10.00;;;;;16.62;66.76;101512.34;5015497;28;45642;-39
2023/07/06 04:52:26;;;;;;;;;8.00;6.67;;;;;16.66;66.44;101517.41;5016291;28;46636;-39
2023/07/06 04:54:51;;;;;;;;;7.67;6.00;;;;;16.69;66.23;101513.69;5015192;28;68856;-39
2023/07/06 04:57:17;;;;;;;;;8.00;6.67;;;;;16.74;66.46;101511.56;5015899;28;67274;-39
2023/07/06 04:59:43;;;;;;;;;9.33;7.00;;;;;16.80;66.49;101515.66;5015827;28;64223;-39
2023/07/06 05:02:10;;;;;;;;;10.67;8.33;;;;;16.85;66.44;101510.84;5015011;28;46340;-39
2023/07/06 05:04:40;;;;;;;;;11.00;9.33;;;;;16.91;66.38;101514.97;5014137;28;45487;-39
2023/07/06 05:07:11;;;;;;;;;7.00;7.00;;;;;16.96;65.64;101513.72;5007447;28;45326;-39
2023/07/06 05:09:38;;;;;;;;;10.00;10.00;;;;;17.01;65.66;101516.97;5010166;28;45634;-39
2023/07/06 05:12:03;;;;;;;;;8.00;8.00;;;;;17.07;65.41;101531.81;5010978;28;45490;-39
2023/07/06 05:14:29;;;;;;;;;11.33;10.00;;;;;17.13;65.32;101525.19;5017955;28;45637;-39
2023/07/06 05:16:54;;;;;;;;;10.67;10.67;;;;;17.19;65.18;101524.78;5019111;28;45332;-39
2023/07/06 05:19:23;;;;;;;;;9.67;9.67;;;;;17.23;64.98;101528.13;5014572;28;45667;-39
2023/07/06 05:21:48;;;;;;;;;9.67;8.67;;;;;17.29;64.89;101525.03;5006993;28;46162;-39
2023/07/06 05:24:14;;;;;;;;;8.67;8.33;;;;;17.34;65.15;101526.44;5014523;28;46021;-39
2023/07/06 05:26:40;;;;;;;;;9.00;8.00;;;;;17.41;64.30;101526.03;5017204;28;45766;-39
2023/07/06 05:29:05;;;;;;;;;12.00;10.67;;;;;17.48;64.39;101521.94;5020512;28;45354;-39
2023/07/06 05:31:31;;;;;;;;;9.67;9.67;;;;;17.55;64.17;101522.38;5011984;28;45511;-39
2023/07/06 05:33:56;;;;;;;;;9.67;9.67;;;;;17.60;64.26;101515.75;5015387;28;45366;-39
2023/07/06 05:36:21;;;;;;;;;10.67;8.67;;;;;17.67;63.92;101526.94;5015225;28;65737;-39
2023/07/06 05:38:47;;;;;;;;;10.67;9.00;;;;;17.75;63.74;101521.88;5015746;28;69480;-39
2023/07/06 05:41:12;;;;;;;;;9.67;9.67;;;;;17.80;63.38;101521.59;5018798;28;45406;-39
2023/07/06 05:43:37;;;;;;;;;11.33;9.67;;;;;17.87;63.44;101520.16;5019008;28;64219;-39
2023/07/06 05:46:03;;;;;;;;;11.33;7.33;;;;;17.93;62.95;101525.16;5018585;28;67085;-39
2023/07/06 05:48:29;;;;;;;;;10.33;10.00;;;;;18.05;62.93;101526.13;5018991;28;66267;-39
2023/07/06 05:50:54;;;;;;;;;10.67;9.67;;;;;18.23;62.75;101528.50;5018948;28;72893;-39
2023/07/06 05:53:20;;;;;;;;;11.67;8.67;;;;;18.30;62.36;101530.66;5019954;28;45352;-39
2023/07/06 05:55:45;;;;;;;;;9.00;8.00;;;;;18.39;61.77;101531.81;5018957;28;67158;-39
2023/07/06 05:58:11;;;;;;;;;7.00;7.00;;;;;18.44;61.40;101524.28;5014506;28;65210;-39
2023/07/06 06:00:39;;;;;;;;;6.33;6.33;;;;;18.52;61.21;101529.09;5018346;28;45501;-39
2023/07/06 06:03:05;;;;;;;;;9.67;8.00;;;;;18.58;60.86;101534.06;5018338;28;45381;-39
2023/07/06 06:05:31;;;;;;;;;8.00;8.00;;;;;18.66;60.38;101530.81;5018503;28;45356;-39
2023/07/06 06:07:56;;;;;;;;;10.00;8.67;;;;;18.74;60.41;101531.09;5018148;28;45225;-39
2023/07/06 06:10:22;;;;;;;;;11.00;8.00;;;;;18.82;60.11;101533.22;5018184;28;45970;-39
2023/07/06 06:12:48;;;;;;;;;9.00;7.00;;;;;18.89;59.84;101534.53;5019095;28;45341;-39
2023/07/06 06:15:15;;;;;;;;;11.00;8.00;;;;;18.97;59.58;101525.91;5017931;28;45514;-39
2023/07/06 06:17:40;;;;;;;;;8.00;8.00;;;;;19.07;59.17;101531.44;5016978;28;45499;-39
2023/07/06 06:20:08;;;;;;;;;8.33;8.33;;;;;19.16;59.21;101541.53;5016341;28;45348;-39
2023/07/06 06:22:34;;;;;;;;;8.00;6.67;;;;;19.26;58.75;101542.56;5019368;28;45296;-39
2023/07/06 06:25:00;;;;;;;;;7.00;7.00;;;;;19.34;57.50;101545.53;5019343;28;45630;-39
2023/07/06 06:27:25;;;;;;;;;8.00;8.00;;;;;19.44;57.66;101547.56;5018678;28;45548;-39
2023/07/06 06:29:51;;;;;;;;;6.33;6.33;;;;;19.53;57.28;101541.47;5018895;28;45456;-39
2023/07/06 06:32:16;;;;;;;;;10.33;8.67;;;;;19.64;56.83;101548.72;5015431;28;56116;-39
2023/07/06 06:34:42;;;;;;;;;6.67;6.67;;;;;19.76;56.59;101550.47;5018581;28;45459;-40
2023/07/06 06:37:09;;;;;;;;;9.00;7.67;;;;;19.92;56.70;101546.63;5014002;28;45375;-39
2023/07/06 06:39:35;;;;;;;;;11.00;9.00;;;;;21.04;56.62;101547.63;5013532;28;48734;-41
2023/07/06 06:42:02;;;;;;;;;10.67;8.67;;;;;24.08;53.78;101546.09;5016316;28;45455;-39
2023/07/06 06:44:29;;;;;;;;;5.00;5.00;;;;;27.23;47.94;101541.19;5013428;28;45336;-39
2023/07/06 06:46:58;;;;;;;;;11.33;5.00;;;;;29.95;43.36;101543.84;5018842;28;45543;-39
2023/07/06 06:49:23;;;;;;;;;8.00;5.67;;;;;32.15;40.39;101541.81;5013122;28;45515;-39
2023/07/06 06:51:48;;;;;;;;;10.67;7.00;;;;;33.92;34.90;101546.56;5012319;28;45395;-40
2023/07/06 06:54:14;;;;;;;;;8.00;6.00;;;;;35.43;32.57;101558.25;5004902;28;68139;-40
2023/07/06 06:56:40;;;;;;;;;3.00;3.00;;;;;36.76;30.84;101546.88;5016927;28;45614;-40
2023/07/06 06:59:06;;;;;;;;;9.33;5.67;;;;;37.95;28.65;101563.00;5005750;28;45469;-39
2023/07/06 07:01:31;;;;;;;;;6.75;5.00;;;;;38.96;26.79;101554.31;5018543;28;45579;-39
2023/07/06 07:03:59;;;;;;;;;2.75;2.75;;;;;39.70;25.92;101556.19;5018062;28;48810;-40
2023/07/06 07:06:25;;;;;;;;;5.50;3.00;;;;;40.54;24.39;101558.22;5018702;28;45170;-40
2023/07/06 07:08:51;;;;;;;;;4.00;3.00;;;;;41.32;22.64;101561.50;5017233;28;46473;-40
2023/07/06 07:11:20;;;;;;;;;8.50;7.75;;;;;41.85;20.73;101563.63;5018022;28;53628;-40
2023/07/06 07:13:49;;;;;;;;;4.00;4.00;;;;;42.30;21.23;101566.97;5017607;28;45461;-40
2023/07/06 07:16:15;;;;;;;;;2.00;1.75;;;;;42.83;21.51;101558.50;5017003;28;45455;-40
2023/07/06 07:18:42;;;;;;;;;1.25;1.25;;;;;43.33;19.85;101561.63;5017764;28;46240;-40
2023/07/06 07:21:09;;;;;;;;;1.50;1.50;;;;;43.90;19.07;101558.75;5014542;28;45392;-39
2023/07/06 07:23:42;;;;;;;;;1.75;0.50;;;;;44.46;19.06;101556.94;5016892;28;45407;-40
2023/07/06 07:26:12;;;;;;;;;0.50;0.50;;;;;44.87;17.90;101553.91;5015785;28;45506;-39
2023/07/06 07:28:38;;;;;;;;;2.00;1.75;;;;;45.26;16.52;101551.09;5018058;28;47007;-40
2023/07/06 07:31:06;;;;;;;;;2.25;2.25;;;;;45.57;16.83;101556.44;5017501;28;45403;-40
2023/07/06 07:33:32;;;;;;;;;4.00;2.00;;;;;45.54;16.23;101548.63;5016845;28;45387;-40
2023/07/06 07:36:00;;;;;;;;;2.00;1.00;;;;;45.74;16.52;101555.16;5018094;28;45568;-40
2023/07/06 07:38:25;;;;;;;;;1.00;1.00;;;;;46.17;16.43;101555.22;5015950;28;46160;-40
2023/07/06 07:40:58;;;;;;;;;1.00;0.00;;;;;46.53;14.60;101553.94;5016080;28;51441;-40
2023/07/06 07:43:25;;;;;;;;;2.00;0.00;;;;;46.75;15.88;101550.53;5017760;28;45732;-40
2023/07/06 07:45:55;;;;;;;;;2.00;2.00;;;;;47.04;16.00;101552.31;5018405;28;45432;-40
2023/07/06 07:48:22;;;;;;;;;3.00;1.25;;;;;47.25;15.32;101546.38;5018869;28;46298;-40
2023/07/06 07:50:48;;;;;;;;;3.50;2.00;;;;;47.57;14.81;101542.72;5017961;28;45354;-40
2023/07/06 07:53:14;;;;;;;;;2.50;2.50;;;;;47.99;14.08;101546.41;5017012;28;45466;-39
2023/07/06 07:55:40;;;;;;;;;2.00;2.00;;;;;48.49;12.68;101548.44;5015134;28;64706;-40
2023/07/06 07:58:06;;;;;;;;;1.25;1.25;;;;;48.66;13.39;101539.34;5016210;28;45471;-40
2023/07/06 08:00:31;;;;;;;;;2.50;2.50;;;;;48.87;13.14;101546.44;5016171;28;69020;-39
2023/07/06 08:02:56;;;;;;;;;2.50;2.50;;;;;49.07;13.14;101537.50;5029208;28;68056;-39
2023/07/06 08:05:23;;;;;;;;;3.25;2.75;;;;;49.24;12.47;101533.94;5016427;28;45671;-44
2023/07/06 08:07:48;;;;;;;;;1.50;1.50;;;;;49.41;12.35;101538.88;5016290;28;45301;-40
2023/07/06 08:10:14;;;;;;;;;3.25;2.25;;;;;49.68;12.21;101528.56;5010372;28;64797;-41
2023/07/06 08:12:39;;;;;;;;;4.00;3.00;;;;;49.87;12.58;101533.94;5017727;28;45758;-40
2023/07/06 08:15:05;;;;;;;;;3.75;3.25;;;;;50.14;11.84;101544.19;5018366;28;45655;-40
2023/07/06 08:17:31;;;;;;;;;3.75;2.75;;;;;50.40;11.71;101539.78;5017209;28;46148;-40
2023/07/06 08:19:56;;;;;;;;;3.50;2.00;;;;;50.67;10.97;101529.28;5011623;28;64070;-40
2023/07/06 08:22:22;;;;;;;;;2.50;1.50;;;;;50.73;11.99;101534.47;5013425;28;66358;-40
2023/07/06 08:24:48;;;;;;;;;4.50;2.50;;;;;50.91;11.36;101532.44;5011151;28;45538;-40
2023/07/06 08:27:13;;;;;;;;;5.00;3.25;;;;;51.00;11.82;101538.09;5016115;28;45981;-40
2023/07/06 08:29:43;;;;;;;;;6.50;2.50;;;;;51.06;10.85;101536.78;5009904;28;63644;-40
2023/07/06 08:32:11;;;;;;;;;3.25;3.25;;;;;51.12;11.41;101528.94;5018260;28;45443;-40
2023/07/06 08:34:37;;;;;;;;;6.00;4.25;;;;;51.28;10.63;101526.38;5013698;28;45359;-40
2023/07/06 08:37:02;;;;;;;;;5.00;5.00;;;;;50.54;9.98;101519.78;5017734;28;46110;-40
2023/07/06 08:39:27;;;;;;;;;5.50;5.25;;;;;49.81;11.23;101521.16;5017767;28;45469;-42
2023/07/06 08:41:53;;;;;;;;;3.75;3.75;;;;;49.91;11.65;101515.19;5020542;28;66843;-40
2023/07/06 08:44:21;;;;;;;;;6.25;3.25;;;;;49.83;11.25;101514.00;5019405;28;45492;-40
2023/07/06 08:46:48;;;;;;;;;3.50;3.50;;;;;50.10;11.63;101519.75;5019802;28;46156;-40
2023/07/06 08:49:32;;;;;;;;;3.00;3.00;;;;;50.68;11.15;101519.63;5020847;28;45305;-41
2023/07/06 08:52:02;;;;;;;;;3.50;2.75;;;;;51.22;11.52;101522.09;5017271;28;45409;-41
2023/07/06 08:54:27;;;;;;;;;4.25;2.75;;;;;51.37;10.27;101512.19;5017021;28;45566;-42
2023/07/06 08:56:53;;;;;;;;;3.25;3.00;;;;;51.67;10.40;101515.91;5011620;28;45529;-42
2023/07/06 08:59:25;;;;;;;;;3.50;3.50;;;;;51.75;10.67;101517.91;5015194;28;45444;-41
2023/07/06 09:01:52;;;;;;;;;3.00;3.00;;;;;51.73;9.99;101519.41;5020853;28;45740;-41
2023/07/06 09:04:19;;;;;;;;;2.25;2.00;;;;;51.69;10.54;101524.91;5020690;28;45281;-41
2023/07/06 09:06:52;;;;;;;;;3.50;3.50;;;;;51.52;9.19;101525.00;5019407;28;46040;-42
2023/07/06 09:09:18;;;;;;;;;3.75;3.25;;;;;51.23;9.74;101543.56;5007833;28;45826;-41
2023/07/06 09:11:44;;;;;;;;;7.00;5.50;;;;;51.09;9.85;101530.44;5019979;28;45807;-41
2023/07/06 09:14:13;;;;;;;;;6.75;5.25;;;;;51.26;10.07;101528.72;5018197;28;45468;-41
2023/07/06 09:16:58;;;;;;;;;6.25;4.75;;;;;51.53;10.01;101518.16;5019056;28;46045;-42
2023/07/06 09:19:25;;;;;;;;;4.50;4.50;;;;;51.70;8.56;101523.75;5018475;28;45269;-41
2023/07/06 09:21:54;;;;;;;;;6.50;4.75;;;;;50.62;10.09;101524.63;5017462;28;45419;-41
2023/07/06 09:24:19;;;;;;;;;4.00;4.00;;;;;49.11;10.08;101521.59;5018918;28;45763;-40
2023/07/06 09:26:46;;;;;;;;;8.00;6.50;;;;;46.53;11.87;101523.84;5020091;28;45567;-40
2023/07/06 09:29:20;;;;;;;;;5.75;5.75;;;;;43.95;13.27;101519.56;5020086;28;45387;-40
2023/07/06 09:31:47;;;;;;;;;5.75;4.25;;;;;41.86;14.43;101523.44;5017949;28;45452;-40
2023/07/06 09:34:25;;;;;;;;;4.25;4.25;;;;;40.29;15.67;101518.59;5020063;28;45408;-39
2023/07/06 09:36:51;;;;;;;;;6.25;6.00;;;;;39.97;16.33;101513.69;5009798;28;46561;-40
2023/07/06 09:39:16;;;;;;;;;4.00;4.00;;;;;40.93;16.39;101510.66;5020190;28;45409;-40
2023/07/06 09:41:46;;;;;;;;;5.00;4.00;;;;;41.98;15.29;101517.63;5018275;28;45662;-40
2023/07/06 09:44:17;;;;;;;;;4.00;2.50;;;;;41.76;15.42;101515.81;5019950;28;45395;-40
2023/07/06 09:46:43;;;;;;;;;4.00;3.00;;;;;42.67;15.11;101501.69;5017768;28;46195;-40
2023/07/06 09:49:17;;;;;;;;;8.00;6.00;;;;;44.20;14.46;101507.44;5019905;28;45542;-44
2023/07/06 09:52:00;;;;;;;;;5.00;4.00;;;;;45.63;13.61;101511.47;5018144;28;45455;-40
2023/07/06 09:54:39;;;;;;;;;7.00;5.50;;;;;46.82;12.93;101497.56;5017093;28;45490;-40
2023/07/06 09:57:10;;;;;;;;;7.75;4.25;;;;;47.72;12.19;101504.97;5002212;28;46179;-40
2023/07/06 09:59:38;;;;;;;;;7.75;5.75;;;;;48.47;11.64;101502.81;5018672;28;45352;-41
2023/07/06 10:02:23;;;;;;;;;7.75;7.00;;;;;48.18;10.97;101506.84;5018560;28;45418;-42
2023/07/06 10:05:07;;;;;;;;;3.75;3.75;;;;;47.26;11.25;101497.38;5020018;28;45694;-39
2023/07/06 10:08:02;;;;;;;;;4.75;4.00;;;;;45.18;11.68;101501.22;5019555;28;45343;-40
2023/07/06 10:10:36;;;;;;;;;5.00;5.00;;;;;42.39;13.51;101505.81;5019252;28;45449;-39
2023/07/06 10:13:15;;;;;;;;;5.75;5.75;;;;;40.72;15.09;101495.66;5019980;28;45530;-39
2023/07/06 10:15:51;;;;;;;;;4.75;4.75;;;;;39.43;15.33;101494.78;5006825;28;45329;-39
2023/07/06 10:18:23;;;;;;;;;5.00;5.00;;;;;38.26;16.36;101491.53;5018525;28;47181;-39
2023/07/06 10:20:58;;;;;;;;;5.00;5.00;;;;;37.04;17.04;101489.16;5018837;28;45454;-39
2023/07/06 10:23:32;;;;;;;;;6.00;4.25;;;;;36.92;18.28;101492.78;5016322;28;46093;-39
2023/07/06 10:26:17;;;;;;;;;4.25;4.25;;;;;38.62;17.40;101483.88;5017409;28;45414;-39
2023/07/06 10:28:47;;;;;;;;;4.25;4.25;;;;;40.65;16.19;101491.16;5008563;28;45486;-39
2023/07/06 10:31:16;;;;;;;;;5.75;3.75;;;;;42.08;15.54;101477.75;5016909;28;45391;-40
2023/07/06 10:33:54;;;;;;;;;5.00;4.25;;;;;43.23;14.67;101484.13;5019857;28;45515;-40
2023/07/06 10:36:19;;;;;;;;;5.00;5.00;;;;;44.25;13.85;101492.53;5016651;28;45447;-40
2023/07/06 10:38:48;;;;;;;;;2.25;2.25;;;;;44.52;13.31;101480.09;5016486;28;45494;-40
2023/07/06 10:41:14;;;;;;;;;5.75;4.25;;;;;43.85;13.47;101481.22;5016619;28;45407;-40
2023/07/06 10:43:42;;;;;;;;;3.00;3.00;;;;;42.27;14.51;101478.97;5018163;28;45456;-40
2023/07/06 10:46:49;;;;;;;;;9.00;7.00;;;;;40.38;15.69;101490.25;5019493;28;45453;-40
2023/07/06 10:49:17;;;;;;;;;5.25;4.00;;;;;39.67;16.19;101486.28;5018567;28;45895;-40
2023/07/06 10:51:50;;;;;;;;;3.75;3.75;;;;;40.75;15.96;101484.84;5017564;28;45307;-40
2023/07/06 10:54:26;;;;;;;;;5.50;5.00;;;;;41.98;14.83;101476.59;5015667;28;45308;-40
2023/07/06 10:57:12;;;;;;;;;4.50;4.50;;;;;42.21;14.17;101479.19;5017879;28;45604;-41
2023/07/06 10:59:49;;;;;;;;;3.25;2.25;;;;;42.50;14.77;101482.34;5019081;28;46059;-41
2023/07/06 11:02:40;;;;;;;;;3.00;3.00;;;;;43.05;14.49;101481.88;5018333;28;45285;-39
2023/07/06 11:05:28;;;;;;;;;5.00;5.00;;;;;43.69;13.24;101468.38;5018879;28;45424;-39
2023/07/06 11:07:55;;;;;;;;;1.75;1.75;;;;;43.84;13.50;101479.53;5018777;28;45557;-39
2023/07/06 11:10:22;;;;;;;;;3.00;3.00;;;;;42.82;13.63;101467.34;5017576;28;45379;-39
2023/07/06 11:12:54;;;;;;;;;2.50;2.50;;;;;40.83;14.31;101475.16;5018727;28;45399;-40
2023/07/06 11:15:32;;;;;;;;;3.25;2.00;;;;;39.28;15.37;101475.91;5018717;28;46461;-40
2023/07/06 11:18:13;;;;;;;;;6.00;5.00;;;;;39.09;15.63;101472.53;5019243;28;45403;-40
2023/07/06 11:20:39;;;;;;;;;3.75;3.75;;;;;39.26;15.89;101460.59;5017650;28;45468;-40
2023/07/06 11:23:12;;;;;;;;;3.75;3.75;;;;;39.75;15.90;101458.00;5016949;28;45430;-40
2023/07/06 11:25:39;;;;;;;;;3.25;2.50;;;;;40.14;15.62;101459.91;5014463;28;45402;-40
2023/07/06 11:28:07;;;;;;;;;8.25;4.50;;;;;40.30;15.18;101461.78;5014279;28;45554;-40
2023/07/06 11:30:49;;;;;;;;;4.75;4.75;;;;;40.32;15.53;101462.34;5017520;28;46188;-40
2023/07/06 11:33:21;;;;;;;;;2.00;2.00;;;;;40.45;15.14;101455.53;5015602;28;45509;-40